createdAt,value
2019-02-10T00:01:00.262Z,43.02
2019-02-10T00:01:59.247Z,43.02
2019-02-10T00:02:59.299Z,43
2019-02-10T00:03:58.703Z,43.02
2019-02-10T00:05:00.603Z,43
2019-02-10T00:05:59.255Z,43.02
2019-02-10T00:06:58.790Z,43.04
2019-02-10T00:07:59.068Z,43
2019-02-10T00:08:59.028Z,42.95
2019-02-10T00:09:59.009Z,43.02
2019-02-10T00:10:59.210Z,42.98
2019-02-10T00:11:58.601Z,42.99
2019-02-10T00:13:00.088Z,42.99
2019-02-10T00:13:58.657Z,43.02
2019-02-10T00:14:59.135Z,43.05
2019-02-10T00:15:58.764Z,43.02
2019-02-10T00:16:59.477Z,43.01
2019-02-10T00:17:58.816Z,43.03
2019-02-10T00:18:59.023Z,43.05
2019-02-10T00:19:59.229Z,42.98
2019-02-10T00:20:59.126Z,43.04
2019-02-10T00:21:59.254Z,43.03
2019-02-10T00:22:58.777Z,43.02
2019-02-10T00:23:59.246Z,43.05
2019-02-10T00:24:58.574Z,43.03
2019-02-10T00:25:59.295Z,43
2019-02-10T00:26:59.222Z,43.04
2019-02-10T00:28:00.106Z,43
2019-02-10T00:28:58.894Z,42.96
2019-02-10T00:29:59.334Z,43.07
2019-02-10T00:30:59.099Z,43.02
2019-02-10T00:31:58.599Z,42.99
2019-02-10T00:32:59.390Z,43.04
2019-02-10T00:34:00.000Z,43
2019-02-10T00:34:59.751Z,42.98
2019-02-10T00:36:00.574Z,43.04
2019-02-10T00:36:59.100Z,43.06
2019-02-10T00:37:59.368Z,43.02
2019-02-10T00:38:58.732Z,43.01
2019-02-10T00:39:58.743Z,43.01
2019-02-10T00:40:59.087Z,43
2019-02-10T00:41:59.681Z,43
2019-02-10T00:42:59.207Z,43.01
2019-02-10T00:43:59.039Z,43
2019-02-10T00:44:58.917Z,43
2019-02-10T00:45:59.008Z,43.06
2019-02-10T00:46:59.243Z,43.02
2019-02-10T00:47:59.720Z,43
2019-02-10T00:48:58.904Z,43.01
2019-02-10T00:49:58.831Z,43.03
2019-02-10T00:50:58.987Z,43.02
2019-02-10T00:51:58.895Z,43.01
2019-02-10T00:52:58.825Z,43.01
2019-02-10T00:53:58.822Z,42.99
2019-02-10T00:54:59.504Z,43.02
2019-02-10T00:55:58.939Z,43.01
2019-02-10T00:56:59.012Z,43.03
2019-02-10T00:57:58.469Z,43.04
2019-02-10T00:58:58.995Z,43.04
2019-02-10T00:59:59.320Z,43.07
2019-02-10T01:00:59.851Z,43.05
2019-02-10T01:01:59.161Z,43.03
2019-02-10T01:02:58.717Z,43.03
2019-02-10T01:03:58.486Z,43.09
2019-02-10T01:04:58.485Z,43.02
2019-02-10T01:05:59.261Z,43.04
2019-02-10T01:06:59.164Z,43.05
2019-02-10T01:07:59.101Z,43.04
2019-02-10T01:08:59.130Z,43.04
2019-02-10T01:09:59.980Z,43.02
2019-02-10T01:11:00.558Z,43.01
2019-02-10T01:11:58.898Z,43.01
2019-02-10T01:12:58.536Z,43.06
2019-02-10T01:13:58.915Z,43
2019-02-10T01:14:58.422Z,43.05
2019-02-10T01:15:59.241Z,43.02
2019-02-10T01:16:58.950Z,43.05
2019-02-10T01:17:58.839Z,43.04
2019-02-10T01:18:59.171Z,43.03
2019-02-10T01:19:58.752Z,43
2019-02-10T01:20:59.078Z,43.08
2019-02-10T01:22:00.217Z,43.07
2019-02-10T01:22:59.031Z,43.02
2019-02-10T01:23:58.522Z,43.01
2019-02-10T01:24:59.182Z,43.01
2019-02-10T01:25:58.581Z,43.06
2019-02-10T01:26:58.954Z,43.03
2019-02-10T01:27:58.942Z,43.05
2019-02-10T01:28:58.923Z,43.01
2019-02-10T01:29:59.098Z,43.01
2019-02-10T01:30:58.680Z,43.12
2019-02-10T01:31:58.668Z,43.15
2019-02-10T01:32:59.042Z,43.11
2019-02-10T01:33:58.431Z,43.08
2019-02-10T01:34:59.654Z,43.08
2019-02-10T01:35:59.222Z,43.04
2019-02-10T01:36:59.034Z,43.1
2019-02-10T01:37:58.869Z,43.09
2019-02-10T01:38:58.919Z,43.07
2019-02-10T01:39:59.073Z,43.04
2019-02-10T01:41:00.188Z,43.02
2019-02-10T01:42:00.010Z,43.07
2019-02-10T01:42:58.517Z,43.06
2019-02-10T01:43:58.618Z,43.04
2019-02-10T01:44:58.827Z,43.08
2019-02-10T01:45:58.887Z,43.08
2019-02-10T01:46:59.270Z,43.06
2019-02-10T01:47:59.236Z,43.05
2019-02-10T01:48:59.529Z,43.07
2019-02-10T01:49:59.650Z,43.03
2019-02-10T01:51:00.456Z,43.05
2019-02-10T01:51:58.793Z,43.06
2019-02-10T01:52:58.923Z,43.07
2019-02-10T01:53:58.577Z,43.09
2019-02-10T01:54:59.055Z,43.02
2019-02-10T01:55:59.733Z,43.11
2019-02-10T01:56:59.097Z,43.09
2019-02-10T01:57:58.904Z,43.07
2019-02-10T01:58:59.052Z,43.09
2019-02-10T01:59:58.528Z,43.06
2019-02-10T02:00:58.630Z,43.08
2019-02-10T02:01:58.467Z,43.09
2019-02-10T02:02:58.597Z,43.09
2019-02-10T02:03:59.157Z,43.08
2019-02-10T02:04:58.499Z,43.09
2019-02-10T02:05:59.406Z,43.07
2019-02-10T02:06:58.472Z,43.06
2019-02-10T02:08:00.171Z,43.05
2019-02-10T02:08:58.999Z,43.09
2019-02-10T02:09:58.902Z,43.09
2019-02-10T02:10:59.123Z,43.08
2019-02-10T02:11:59.203Z,43.05
2019-02-10T02:12:59.860Z,43.07
2019-02-10T02:13:58.690Z,43.1
2019-02-10T02:14:59.198Z,43.05
2019-02-10T02:15:59.150Z,43.1
2019-02-10T02:16:58.620Z,43.04
2019-02-10T02:17:58.614Z,43.1
2019-02-10T02:18:58.460Z,43.04
2019-02-10T02:19:58.905Z,43.07
2019-02-10T02:20:59.241Z,43
2019-02-10T02:21:58.875Z,43.03
2019-02-10T02:22:59.629Z,43.08
2019-02-10T02:23:58.899Z,43.03
2019-02-10T02:24:59.048Z,43.04
2019-02-10T02:25:58.414Z,43.08
2019-02-10T02:26:58.969Z,42.97
2019-02-10T02:27:58.703Z,43.06
2019-02-10T02:28:58.607Z,43.04
2019-02-10T02:29:58.420Z,43.01
2019-02-10T02:30:59.486Z,43.06
2019-02-10T02:31:59.193Z,43.07
2019-02-10T02:32:58.762Z,43.05
2019-02-10T02:33:59.176Z,43.04
2019-02-10T02:34:58.733Z,42.97
2019-02-10T02:35:59.037Z,43.04
2019-02-10T02:37:08.594Z,43.07
2019-02-10T02:37:58.771Z,43.03
2019-02-10T02:38:59.590Z,43.06
2019-02-10T02:39:58.752Z,43.05
2019-02-10T02:40:59.316Z,43.07
2019-02-10T02:41:58.521Z,43.06
2019-02-10T02:42:58.424Z,43.11
2019-02-10T02:43:58.772Z,43.1
2019-02-10T02:44:59.107Z,43.08
2019-02-10T02:45:59.064Z,43.09
2019-02-10T02:46:59.233Z,43.07
2019-02-10T02:48:00.535Z,43.06
2019-02-10T02:48:58.447Z,43.12
2019-02-10T02:49:58.537Z,43.09
2019-02-10T02:50:58.379Z,43.11
2019-02-10T02:52:00.471Z,43.08
2019-02-10T02:52:58.926Z,43.08
2019-02-10T02:53:58.846Z,43.12
2019-02-10T02:54:58.482Z,43.09
2019-02-10T02:55:59.036Z,43.07
2019-02-10T02:56:59.198Z,43.09
2019-02-10T02:58:00.536Z,43.1
2019-02-10T02:58:58.573Z,43.1
2019-02-10T02:59:58.522Z,43.11
2019-02-10T03:00:58.889Z,43.1
2019-02-10T03:01:58.871Z,43.07
2019-02-10T03:02:58.885Z,43.1
2019-02-10T03:03:59.391Z,43.09
2019-02-10T03:04:58.569Z,43.08
2019-02-10T03:05:58.843Z,43.07
2019-02-10T03:06:58.553Z,43.11
2019-02-10T03:07:59.229Z,43.1
2019-02-10T03:08:59.446Z,43.16
2019-02-10T03:09:58.842Z,43.12
2019-02-10T03:10:58.681Z,43.13
2019-02-10T03:11:58.978Z,43.11
2019-02-10T03:12:58.857Z,43.11
2019-02-10T03:13:58.568Z,43.13
2019-02-10T03:14:59.244Z,43.1
2019-02-10T03:15:59.250Z,43.11
2019-02-10T03:16:59.197Z,43.1
2019-02-10T03:17:58.502Z,43.06
2019-02-10T03:18:59.126Z,43.07
2019-02-10T03:19:59.750Z,43.09
2019-02-10T03:20:59.237Z,43.06
2019-02-10T03:21:59.158Z,43.08
2019-02-10T03:22:58.566Z,43.07
2019-02-10T03:23:58.559Z,43.09
2019-02-10T03:24:59.583Z,43.1
2019-02-10T03:25:58.883Z,43.08
2019-02-10T03:26:59.494Z,43.11
2019-02-10T03:27:59.495Z,43.11
2019-02-10T03:28:58.556Z,43.07
2019-02-10T03:29:58.871Z,43.09
2019-02-10T03:30:59.701Z,43.13
2019-02-10T03:31:58.975Z,43.07
2019-02-10T03:32:58.957Z,43.11
2019-02-10T03:33:59.019Z,43.12
2019-02-10T03:34:59.589Z,43.09
2019-02-10T03:35:59.390Z,43.14
2019-02-10T03:36:58.586Z,43.13
2019-02-10T03:38:00.517Z,43.15
2019-02-10T03:38:59.368Z,43.12
2019-02-10T03:39:59.171Z,43.08
2019-02-10T03:40:59.338Z,43.1
2019-02-10T03:41:59.055Z,43.12
2019-02-10T03:42:59.279Z,43.1
2019-02-10T03:43:59.475Z,43.13
2019-02-10T03:44:58.514Z,43.09
2019-02-10T03:45:58.699Z,43.14
2019-02-10T03:46:59.040Z,43.11
2019-02-10T03:47:58.517Z,43.1
2019-02-10T03:48:58.684Z,43.11
2019-02-10T03:49:58.608Z,43.13
2019-02-10T03:50:58.914Z,43.15
2019-02-10T03:51:59.222Z,43.13
2019-02-10T03:52:58.583Z,43.1
2019-02-10T03:53:58.867Z,43.16
2019-02-10T03:54:58.526Z,43.15
2019-02-10T03:55:58.737Z,43.16
2019-02-10T03:56:58.568Z,43.1
2019-02-10T03:57:59.296Z,43.13
2019-02-10T03:58:58.772Z,43.16
2019-02-10T03:59:58.628Z,43.13
2019-02-10T04:00:59.941Z,43.13
2019-02-10T04:01:58.953Z,43.16
2019-02-10T04:03:00.137Z,43.15
2019-02-10T04:03:59.269Z,43.13
2019-02-10T04:04:58.310Z,43.12
2019-02-10T04:05:58.789Z,43.15
2019-02-10T04:06:58.716Z,43.17
2019-02-10T04:08:00.399Z,43.13
2019-02-10T04:08:59.564Z,43.16
2019-02-10T04:09:58.515Z,43.15
2019-02-10T04:10:58.469Z,43.16
2019-02-10T04:11:59.370Z,43.17
2019-02-10T04:12:58.914Z,43.17
2019-02-10T04:14:00.426Z,43.12
2019-02-10T04:14:58.823Z,43.16
2019-02-10T04:15:59.307Z,43.15
2019-02-10T04:17:00.461Z,43.19
2019-02-10T04:17:58.856Z,43.21
2019-02-10T04:18:58.520Z,43.18
2019-02-10T04:19:58.676Z,43.19
2019-02-10T04:20:58.727Z,43.19
2019-02-10T04:21:59.223Z,43.21
2019-02-10T04:22:58.509Z,43.2
2019-02-10T04:23:58.460Z,43.19
2019-02-10T04:24:58.805Z,43.2
2019-02-10T04:25:58.566Z,43.14
2019-02-10T04:26:58.658Z,43.19
2019-02-10T04:27:59.486Z,43.2
2019-02-10T04:28:58.975Z,43.15
2019-02-10T04:29:58.537Z,43.15
2019-02-10T04:30:59.192Z,43.16
2019-02-10T04:31:58.931Z,43.16
2019-02-10T04:32:59.230Z,43.17
2019-02-10T04:33:59.352Z,43.21
2019-02-10T04:34:58.820Z,43.17
2019-02-10T04:35:58.558Z,43.2
2019-02-10T04:36:59.084Z,43.21
2019-02-10T04:37:58.619Z,43.19
2019-02-10T04:38:58.677Z,43.17
2019-02-10T04:40:00.541Z,43.2
2019-02-10T04:40:58.592Z,43.17
2019-02-10T04:41:58.805Z,43.14
2019-02-10T04:42:58.912Z,43.12
2019-02-10T04:43:58.746Z,43.13
2019-02-10T04:44:58.605Z,43.17
2019-02-10T04:45:59.283Z,43.18
2019-02-10T04:46:59.256Z,43.16
2019-02-10T04:47:59.446Z,43.17
2019-02-10T04:48:58.793Z,43.18
2019-02-10T04:49:59.068Z,43.18
2019-02-10T04:50:58.961Z,43.21
2019-02-10T04:51:58.829Z,43.16
2019-02-10T04:52:58.573Z,43.17
2019-02-10T04:53:59.044Z,43.19
2019-02-10T04:54:58.484Z,43.14
2019-02-10T04:55:58.523Z,43.15
2019-02-10T04:56:58.736Z,43.13
2019-02-10T04:57:58.814Z,43.09
2019-02-10T04:58:58.752Z,43.14
2019-02-10T05:00:00.583Z,43.08
2019-02-10T05:00:58.380Z,43.11
2019-02-10T05:01:59.558Z,43.09
2019-02-10T05:02:58.698Z,43.09
2019-02-10T05:03:58.430Z,43.09
2019-02-10T05:04:59.124Z,43.08
2019-02-10T05:05:58.563Z,43.1
2019-02-10T05:06:58.804Z,43.11
2019-02-10T05:07:58.522Z,43.07
2019-02-10T05:09:00.277Z,43.03
2019-02-10T05:09:58.886Z,43.02
2019-02-10T05:11:00.493Z,43
2019-02-10T05:11:58.746Z,42.99
2019-02-10T05:12:58.937Z,42.98
2019-02-10T05:13:58.844Z,42.92
2019-02-10T05:14:58.880Z,42.95
2019-02-10T05:15:58.653Z,43
2019-02-10T05:16:58.649Z,42.94
2019-02-10T05:17:58.908Z,42.9
2019-02-10T05:18:58.669Z,42.91
2019-02-10T05:20:00.464Z,42.92
2019-02-10T05:20:59.310Z,42.92
2019-02-10T05:21:59.096Z,42.92
2019-02-10T05:23:00.472Z,42.88
2019-02-10T05:24:04.292Z,42.91
2019-02-10T05:25:00.610Z,42.87
2019-02-10T05:25:58.853Z,42.98
2019-02-10T05:26:58.750Z,42.91
2019-02-10T05:27:59.763Z,42.81
2019-02-10T05:28:58.926Z,42.82
2019-02-10T05:29:59.072Z,42.85
2019-02-10T05:30:58.693Z,42.84
2019-02-10T05:31:58.544Z,42.84
2019-02-10T05:32:58.517Z,42.83
2019-02-10T05:33:58.714Z,42.76
2019-02-10T05:34:59.204Z,42.81
2019-02-10T05:35:58.796Z,42.8
2019-02-10T05:36:58.890Z,42.85
2019-02-10T05:38:05.055Z,42.85
2019-02-10T05:38:58.502Z,42.87
2019-02-10T05:39:58.365Z,42.8
2019-02-10T05:40:58.421Z,42.89
2019-02-10T05:41:58.656Z,42.88
2019-02-10T05:42:58.628Z,42.84
2019-02-10T05:43:58.380Z,42.86
2019-02-10T05:44:58.940Z,42.86
2019-02-10T05:45:58.755Z,42.81
2019-02-10T05:46:58.574Z,42.86
2019-02-10T05:47:59.116Z,42.82
2019-02-10T05:48:58.926Z,42.85
2019-02-10T05:49:58.687Z,42.89
2019-02-10T05:50:58.726Z,42.88
2019-02-10T05:51:58.721Z,42.83
2019-02-10T05:52:58.855Z,42.86
2019-02-10T05:53:59.072Z,42.82
2019-02-10T05:54:59.337Z,42.84
2019-02-10T05:55:59.005Z,42.84
2019-02-10T05:57:00.315Z,42.73
2019-02-10T05:57:58.946Z,42.81
2019-02-10T05:58:58.630Z,42.84
2019-02-10T05:59:59.069Z,42.85
2019-02-10T06:01:00.410Z,42.82
2019-02-10T06:01:58.790Z,42.83
2019-02-10T06:02:59.309Z,42.78
2019-02-10T06:03:58.945Z,42.79
2019-02-10T06:05:00.107Z,42.8
2019-02-10T06:05:59.237Z,42.82
2019-02-10T06:06:58.460Z,42.84
2019-02-10T06:07:58.815Z,42.82
2019-02-10T06:08:59.042Z,42.77
2019-02-10T06:09:59.756Z,42.89
2019-02-10T06:10:58.479Z,43.06
2019-02-10T06:11:59.760Z,42.43
2019-02-10T06:12:58.349Z,42.26
2019-02-10T06:13:58.513Z,42.07
2019-02-10T06:14:58.973Z,42.02
2019-02-10T06:15:59.364Z,41.81
2019-02-10T06:16:58.975Z,41.92
2019-02-10T06:17:59.120Z,41.86
2019-02-10T06:18:59.005Z,41.83
2019-02-10T06:19:59.414Z,41.82
2019-02-10T06:20:59.337Z,41.82
2019-02-10T06:21:59.100Z,41.79
2019-02-10T06:22:58.826Z,41.81
2019-02-10T06:23:58.499Z,41.79
2019-02-10T06:24:58.483Z,41.83
2019-02-10T06:25:58.805Z,41.78
2019-02-10T06:26:58.836Z,42.02
2019-02-10T06:27:58.403Z,42
2019-02-10T06:28:58.419Z,42.1
2019-02-10T06:29:58.770Z,42.09
2019-02-10T06:30:58.793Z,42.12
2019-02-10T06:31:59.284Z,42.23
2019-02-10T06:32:58.327Z,42.12
2019-02-10T06:33:58.520Z,42.13
2019-02-10T06:34:59.430Z,42.11
2019-02-10T06:35:58.633Z,42.21
2019-02-10T06:36:58.487Z,42.18
2019-02-10T06:37:59.038Z,42.17
2019-02-10T06:38:58.954Z,42.2
2019-02-10T06:40:00.812Z,42.18
2019-02-10T06:40:58.726Z,42.18
2019-02-10T06:41:58.845Z,42.2
2019-02-10T06:42:59.953Z,42.13
2019-02-10T06:43:59.180Z,42.14
2019-02-10T06:44:58.764Z,42.2
2019-02-10T06:45:59.374Z,42.14
2019-02-10T06:46:58.615Z,42.13
2019-02-10T06:48:00.062Z,42.15
2019-02-10T06:48:59.109Z,42.14
2019-02-10T06:49:58.818Z,42.14
2019-02-10T06:50:58.504Z,42.17
2019-02-10T06:51:58.419Z,42.18
2019-02-10T06:52:58.269Z,42.18
2019-02-10T06:53:58.411Z,42.11
2019-02-10T06:54:59.163Z,42.14
2019-02-10T06:55:59.447Z,42.17
2019-02-10T06:56:59.001Z,42.17
2019-02-10T06:57:58.399Z,42.13
2019-02-10T06:58:58.389Z,42.18
2019-02-10T06:59:59.297Z,42.2
2019-02-10T07:00:58.358Z,42.13
2019-02-10T07:01:58.247Z,42.15
2019-02-10T07:02:58.914Z,42.16
2019-02-10T07:03:59.159Z,42.15
2019-02-10T07:04:58.825Z,42.18
2019-02-10T07:05:58.831Z,42.19
2019-02-10T07:07:00.307Z,42.14
2019-02-10T07:07:59.356Z,42.18
2019-02-10T07:08:58.370Z,42.18
2019-02-10T07:09:58.511Z,42.17
2019-02-10T07:10:58.761Z,42.16
2019-02-10T07:12:00.239Z,42.15
2019-02-10T07:12:58.754Z,42.2
2019-02-10T07:13:58.496Z,42.21
2019-02-10T07:14:58.790Z,42.24
2019-02-10T07:15:58.705Z,42.16
2019-02-10T07:16:58.688Z,42.19
2019-02-10T07:17:59.347Z,42.16
2019-02-10T07:18:58.549Z,42.15
2019-02-10T07:19:58.802Z,42.16
2019-02-10T07:20:58.400Z,42.15
2019-02-10T07:21:58.820Z,42.15
2019-02-10T07:22:58.621Z,42.17
2019-02-10T07:23:59.239Z,42.17
2019-02-10T07:24:58.384Z,42.15
2019-02-10T07:25:58.225Z,42.17
2019-02-10T07:26:58.533Z,42.15
2019-02-10T07:28:00.190Z,42.17
2019-02-10T07:28:58.408Z,42.16
2019-02-10T07:29:59.392Z,42.12
2019-02-10T07:30:58.988Z,42.14
2019-02-10T07:31:58.671Z,42.1
2019-02-10T07:32:58.714Z,42.12
2019-02-10T07:33:59.234Z,42.11
2019-02-10T07:35:00.518Z,42.15
2019-02-10T07:35:58.851Z,42.16
2019-02-10T07:36:58.730Z,42.16
2019-02-10T07:37:58.766Z,42.13
2019-02-10T07:38:59.222Z,42.12
2019-02-10T07:39:58.748Z,42.15
2019-02-10T07:40:58.625Z,42.14
2019-02-10T07:41:58.868Z,42.18
2019-02-10T07:42:58.797Z,42.15
2019-02-10T07:43:58.587Z,42.13
2019-02-10T07:44:58.425Z,42.08
2019-02-10T07:45:58.699Z,42.12
2019-02-10T07:46:58.360Z,42.14
2019-02-10T07:47:58.762Z,42.14
2019-02-10T07:48:58.799Z,42.14
2019-02-10T07:49:59.216Z,42.13
2019-02-10T07:50:59.278Z,42.1
2019-02-10T07:51:58.937Z,42.17
2019-02-10T07:53:00.503Z,42.08
2019-02-10T07:53:59.078Z,42.12
2019-02-10T07:54:58.790Z,42.07
2019-02-10T07:55:58.289Z,42.09
2019-02-10T07:56:59.021Z,42.12
2019-02-10T07:57:58.995Z,42.09
2019-02-10T07:58:58.662Z,42.13
2019-02-10T07:59:58.523Z,42.09
2019-02-10T08:00:58.931Z,42.13
2019-02-10T08:01:58.815Z,42.08
2019-02-10T08:02:58.630Z,42.15
2019-02-10T08:03:58.450Z,42.11
2019-02-10T08:04:59.114Z,42.11
2019-02-10T08:06:00.066Z,42.1
2019-02-10T08:06:58.847Z,42.11
2019-02-10T08:07:58.736Z,42.07
2019-02-10T08:08:58.366Z,42.1
2019-02-10T08:09:58.485Z,42.11
2019-02-10T08:10:58.411Z,42.1
2019-02-10T08:11:58.792Z,42.07
2019-02-10T08:13:00.331Z,42.08
2019-02-10T08:13:58.522Z,42.12
2019-02-10T08:14:58.343Z,42.1
2019-02-10T08:15:58.869Z,42.1
2019-02-10T08:16:58.327Z,42.09
2019-02-10T08:17:58.724Z,42.07
2019-02-10T08:18:58.717Z,42.06
2019-02-10T08:19:58.875Z,42.11
2019-02-10T08:20:58.831Z,42.09
2019-02-10T08:21:58.370Z,42.1
2019-02-10T08:22:59.682Z,42.1
2019-02-10T08:23:58.757Z,42.1
2019-02-10T08:25:00.456Z,42.08
2019-02-10T08:25:58.660Z,42.09
2019-02-10T08:26:58.884Z,42.13
2019-02-10T08:27:59.525Z,42.09
2019-02-10T08:28:59.320Z,42.07
2019-02-10T08:29:58.883Z,42.11
2019-02-10T08:30:58.222Z,42.09
2019-02-10T08:31:58.917Z,42.1
2019-02-10T08:32:59.430Z,42.09
2019-02-10T08:33:58.866Z,42.05
2019-02-10T08:34:58.953Z,42.07
2019-02-10T08:36:00.236Z,42.1
2019-02-10T08:36:58.301Z,42.12
2019-02-10T08:37:58.606Z,42.11
2019-02-10T08:38:59.083Z,42.12
2019-02-10T08:39:58.328Z,42.11
2019-02-10T08:40:59.283Z,42.08
2019-02-10T08:41:59.311Z,42.07
2019-02-10T08:42:58.908Z,42.07
2019-02-10T08:43:58.593Z,42.13
2019-02-10T08:44:59.002Z,42.07
2019-02-10T08:45:58.499Z,42.07
2019-02-10T08:46:58.533Z,42.07
2019-02-10T08:47:58.487Z,42.06
2019-02-10T08:48:58.575Z,42.07
2019-02-10T08:49:58.887Z,42.05
2019-02-10T08:50:59.063Z,42.02
2019-02-10T08:51:58.278Z,42.06
2019-02-10T08:53:00.189Z,42.05
2019-02-10T08:54:00.354Z,42.03
2019-02-10T08:54:58.478Z,42.04
2019-02-10T08:55:58.993Z,42.01
2019-02-10T08:56:59.957Z,42.01
2019-02-10T08:57:58.804Z,42.02
2019-02-10T08:58:58.804Z,42.02
2019-02-10T08:59:58.851Z,42.05
2019-02-10T09:00:58.413Z,42.02
2019-02-10T09:02:00.058Z,42.04
2019-02-10T09:02:58.455Z,42.02
2019-02-10T09:03:58.540Z,42.01
2019-02-10T09:04:58.737Z,42.01
2019-02-10T09:05:58.792Z,42.01
2019-02-10T09:06:59.688Z,42.05
2019-02-10T09:07:59.006Z,42.08
2019-02-10T09:09:03.121Z,42.02
2019-02-10T09:10:00.614Z,42.01
2019-02-10T09:10:58.394Z,42.06
2019-02-10T09:11:58.959Z,42.02
2019-02-10T09:12:59.197Z,42.04
2019-02-10T09:13:58.748Z,42.02
2019-02-10T09:14:58.943Z,42.02
2019-02-10T09:16:00.064Z,42.05
2019-02-10T09:16:58.311Z,41.98
2019-02-10T09:18:00.076Z,41.99
2019-02-10T09:18:58.504Z,42
2019-02-10T09:19:59.255Z,42
2019-02-10T09:20:58.870Z,41.97
2019-02-10T09:21:58.218Z,41.96
2019-02-10T09:22:58.625Z,41.95
2019-02-10T09:23:58.411Z,41.93
2019-02-10T09:24:58.731Z,42
2019-02-10T09:25:58.354Z,41.98
2019-02-10T09:26:58.817Z,42
2019-02-10T09:27:58.812Z,41.95
2019-02-10T09:28:58.414Z,41.95
2019-02-10T09:29:59.110Z,41.96
2019-02-10T09:31:00.127Z,41.96
2019-02-10T09:31:58.380Z,41.96
2019-02-10T09:32:59.060Z,41.99
2019-02-10T09:33:59.049Z,41.99
2019-02-10T09:35:00.443Z,41.92
2019-02-10T09:35:58.578Z,41.93
2019-02-10T09:36:58.874Z,41.92
2019-02-10T09:37:58.393Z,41.95
2019-02-10T09:38:58.501Z,42.11
2019-02-10T09:39:58.581Z,42.21
2019-02-10T09:41:00.256Z,42.26
2019-02-10T09:41:58.416Z,42.19
2019-02-10T09:42:58.525Z,42.23
2019-02-10T09:43:58.366Z,42.37
2019-02-10T09:44:59.049Z,42.35
2019-02-10T09:45:58.655Z,42.51
2019-02-10T09:46:58.648Z,42.44
2019-02-10T09:47:59.065Z,42.45
2019-02-10T09:48:59.826Z,42.32
2019-02-10T09:49:58.343Z,42.29
2019-02-10T09:50:58.655Z,42.23
2019-02-10T09:51:58.222Z,42.2
2019-02-10T09:52:59.019Z,42.18
2019-02-10T09:53:58.549Z,42.16
2019-02-10T09:54:58.604Z,42.22
2019-02-10T09:55:58.679Z,42.27
2019-02-10T09:56:58.363Z,42.31
2019-02-10T09:58:00.136Z,42.26
2019-02-10T09:58:58.826Z,42.28
2019-02-10T09:59:58.531Z,42.17
2019-02-10T10:00:58.536Z,42.2
2019-02-10T10:01:58.878Z,42.17
2019-02-10T10:02:58.798Z,42.06
2019-02-10T10:03:58.830Z,42.03
2019-02-10T10:04:58.589Z,42.04
2019-02-10T10:05:58.429Z,42.1
2019-02-10T10:06:58.526Z,42.27
2019-02-10T10:07:58.593Z,41.97
2019-02-10T10:08:58.859Z,41.92
2019-02-10T10:09:58.345Z,41.8
2019-02-10T10:10:59.518Z,41.84
2019-02-10T10:11:59.333Z,41.75
2019-02-10T10:12:58.736Z,41.71
2019-02-10T10:13:58.743Z,41.69
2019-02-10T10:14:59.257Z,41.69
2019-02-10T10:15:58.354Z,41.66
2019-02-10T10:16:58.341Z,41.63
2019-02-10T10:17:58.886Z,41.66
2019-02-10T10:18:58.480Z,41.61
2019-02-10T10:19:58.787Z,41.6
2019-02-10T10:20:58.803Z,41.62
2019-02-10T10:21:58.677Z,41.57
2019-02-10T10:22:58.167Z,41.58
2019-02-10T10:24:00.125Z,41.57
2019-02-10T10:25:01.083Z,41.58
2019-02-10T10:25:58.318Z,41.52
2019-02-10T10:26:58.826Z,41.59
2019-02-10T10:27:58.454Z,41.57
2019-02-10T10:28:58.593Z,41.77
2019-02-10T10:29:58.371Z,41.94
2019-02-10T10:30:58.350Z,42.13
2019-02-10T10:31:58.425Z,42.21
2019-02-10T10:32:59.099Z,42.28
2019-02-10T10:33:58.582Z,42.35
2019-02-10T10:34:58.579Z,42.33
2019-02-10T10:35:58.803Z,42.3
2019-02-10T10:36:59.118Z,42.36
2019-02-10T10:37:58.853Z,42.45
2019-02-10T10:38:58.676Z,42.41
2019-02-10T10:39:58.493Z,42.36
2019-02-10T10:40:58.268Z,42.27
2019-02-10T10:42:00.168Z,42.26
2019-02-10T10:42:59.259Z,42.44
2019-02-10T10:43:58.476Z,42.55
2019-02-10T10:44:58.457Z,42.45
2019-02-10T10:45:58.804Z,42.37
2019-02-10T10:46:58.749Z,42.42
2019-02-10T10:47:58.381Z,42.21
2019-02-10T10:48:59.878Z,42.44
2019-02-10T10:49:58.232Z,42.21
2019-02-10T10:50:58.741Z,42.66
2019-02-10T10:51:58.937Z,42.43
2019-02-10T10:52:58.423Z,42.45
2019-02-10T10:54:00.163Z,42.37
2019-02-10T10:54:59.113Z,42.69
2019-02-10T10:55:59.166Z,42.34
2019-02-10T10:56:58.600Z,42.57
2019-02-10T10:57:59.256Z,42.46
2019-02-10T10:58:58.191Z,42.62
2019-02-10T10:59:58.571Z,42.54
2019-02-10T11:00:58.927Z,42.58
2019-02-10T11:02:00.131Z,42.67
2019-02-10T11:02:59.182Z,42.38
2019-02-10T11:03:58.819Z,42.71
2019-02-10T11:04:59.197Z,42.66
2019-02-10T11:06:01.060Z,42.51
2019-02-10T11:06:59.512Z,42.35
2019-02-10T11:07:58.584Z,42.38
2019-02-10T11:08:58.295Z,42.61
2019-02-10T11:09:59.081Z,42.3
2019-02-10T11:10:58.844Z,42.66
2019-02-10T11:11:58.308Z,43.12
2019-02-10T11:13:00.226Z,43.39
2019-02-10T11:13:59.408Z,42.88
2019-02-10T11:14:58.679Z,43.01
2019-02-10T11:15:59.761Z,42.81
2019-02-10T11:16:59.280Z,42.98
2019-02-10T11:17:58.690Z,42.9
2019-02-10T11:18:59.241Z,43.4
2019-02-10T11:19:59.824Z,43.51
2019-02-10T11:20:58.362Z,43.69
2019-02-10T11:21:58.387Z,43.7
2019-02-10T11:23:00.374Z,43.5
2019-02-10T11:23:58.785Z,43.15
2019-02-10T11:24:58.992Z,43.21
2019-02-10T11:25:58.893Z,42.76
2019-02-10T11:27:00.224Z,43.73
2019-02-10T11:27:58.702Z,42.91
2019-02-10T11:29:00.068Z,43.09
2019-02-10T11:29:58.623Z,43.07
2019-02-10T11:30:58.958Z,43.7
2019-02-10T11:31:59.154Z,43.87
2019-02-10T11:32:58.837Z,43.32
2019-02-10T11:33:58.660Z,43.37
2019-02-10T11:34:58.473Z,43.45
2019-02-10T11:35:58.381Z,42.44
2019-02-10T11:36:58.320Z,43.37
2019-02-10T11:37:58.213Z,43.15
2019-02-10T11:38:58.326Z,42.66
2019-02-10T11:39:58.467Z,43.51
2019-02-10T11:40:58.404Z,43.2
2019-02-10T11:41:58.419Z,43.22
2019-02-10T11:43:00.322Z,43.25
2019-02-10T11:43:58.406Z,42.46
2019-02-10T11:44:59.244Z,42.13
2019-02-10T11:45:58.845Z,41.67
2019-02-10T11:46:58.682Z,42.07
2019-02-10T11:47:58.873Z,41.73
2019-02-10T11:48:58.985Z,42.06
2019-02-10T11:49:58.784Z,42.03
2019-02-10T11:50:58.350Z,42.28
2019-02-10T11:51:58.590Z,42.35
2019-02-10T11:52:58.794Z,42.48
2019-02-10T11:53:58.368Z,42.4
2019-02-10T11:54:58.204Z,42.42
2019-02-10T11:56:00.324Z,42.59
2019-02-10T11:56:58.970Z,42.66
2019-02-10T11:57:58.352Z,42.4
2019-02-10T11:58:58.811Z,42.92
2019-02-10T11:59:58.287Z,42.78
2019-02-10T12:00:58.747Z,42.74
2019-02-10T12:01:59.061Z,42.57
2019-02-10T12:02:58.606Z,43.06
2019-02-10T12:03:58.256Z,43.16
2019-02-10T12:04:59.032Z,42.5
2019-02-10T12:05:58.328Z,42.44
2019-02-10T12:06:58.410Z,42.11
2019-02-10T12:07:59.304Z,42.24
2019-02-10T12:08:58.827Z,41.91
2019-02-10T12:09:58.889Z,41.87
2019-02-10T12:10:58.509Z,41.83
2019-02-10T12:11:58.583Z,41.97
2019-02-10T12:12:58.695Z,41.96
2019-02-10T12:14:00.356Z,42.11
2019-02-10T12:14:58.504Z,42.3
2019-02-10T12:15:58.878Z,42.29
2019-02-10T12:16:58.366Z,42.02
2019-02-10T12:17:58.317Z,42.1
2019-02-10T12:18:58.792Z,42.06
2019-02-10T12:19:58.412Z,42.25
2019-02-10T12:20:58.748Z,42.17
2019-02-10T12:21:58.918Z,41.91
2019-02-10T12:22:58.918Z,42.12
2019-02-10T12:23:58.343Z,41.98
2019-02-10T12:24:58.300Z,42.02
2019-02-10T12:25:58.839Z,41.98
2019-02-10T12:26:58.741Z,41.92
2019-02-10T12:27:59.162Z,41.9
2019-02-10T12:28:58.962Z,41.85
2019-02-10T12:29:58.366Z,41.82
2019-02-10T12:30:58.365Z,42.33
2019-02-10T12:31:58.255Z,42.17
2019-02-10T12:32:58.401Z,42.29
2019-02-10T12:33:58.366Z,42.23
2019-02-10T12:34:58.576Z,42.04
2019-02-10T12:35:59.627Z,41.99
2019-02-10T12:36:58.486Z,42.03
2019-02-10T12:37:58.788Z,42.04
2019-02-10T12:38:58.462Z,41.95
2019-02-10T12:40:00.576Z,41.98
2019-02-10T12:40:58.160Z,42.12
2019-02-10T12:41:58.742Z,42.11
2019-02-10T12:42:58.649Z,42.11
2019-02-10T12:43:59.239Z,42.16
2019-02-10T12:44:58.314Z,42.2
2019-02-10T12:45:58.782Z,42.21
2019-02-10T12:46:58.372Z,42.2
2019-02-10T12:47:58.425Z,42.19
2019-02-10T12:48:58.890Z,42.15
2019-02-10T12:49:58.266Z,42.14
2019-02-10T12:50:59.518Z,42.18
2019-02-10T12:51:58.371Z,42.16
2019-02-10T12:52:58.204Z,42.13
2019-02-10T12:53:58.434Z,42.1
2019-02-10T12:54:58.968Z,42.18
2019-02-10T12:55:58.372Z,42.09
2019-02-10T12:56:58.450Z,42.09